createdAt,value
2022-12-18T00:00:33.296Z,97.85
2022-12-18T00:02:59.884Z,97.90
2022-12-18T00:05:26.077Z,98.19
2022-12-18T00:07:52.407Z,98.05
2022-12-18T00:10:18.779Z,98.17
2022-12-18T00:12:45.162Z,98.31
2022-12-18T00:15:11.516Z,98.05
2022-12-18T00:17:38.062Z,98.04
2022-12-18T00:20:04.381Z,97.85
2022-12-18T00:22:30.771Z,97.78
2022-12-18T00:24:57.082Z,97.50
2022-12-18T00:27:23.426Z,97.68
2022-12-18T00:29:49.782Z,97.72
2022-12-18T00:32:16.161Z,97.75
2022-12-18T00:34:42.488Z,97.67
2022-12-18T00:37:08.868Z,97.08
2022-12-18T00:39:35.186Z,96.72
2022-12-18T00:42:01.533Z,96.96
2022-12-18T00:44:27.924Z,97.15
2022-12-18T00:46:54.292Z,97.25
2022-12-18T00:49:20.644Z,97.16
2022-12-18T00:51:47.045Z,96.90
2022-12-18T00:54:13.408Z,96.77
2022-12-18T00:56:48.326Z,96.78
2022-12-18T00:59:06.063Z,96.84
2022-12-18T01:01:32.577Z,96.63
2022-12-18T01:03:58.841Z,96.20
2022-12-18T01:06:25.185Z,96.22
2022-12-18T01:08:51.505Z,96.59
2022-12-18T01:11:17.875Z,96.48
2022-12-18T01:13:44.231Z,96.71
2022-12-18T01:16:10.713Z,96.38
2022-12-18T01:18:36.923Z,96.48
2022-12-18T01:21:03.302Z,96.52
2022-12-18T01:23:29.729Z,96.83
2022-12-18T01:25:56.141Z,96.86
2022-12-18T01:28:22.443Z,96.91
2022-12-18T01:30:48.822Z,96.82
2022-12-18T01:33:15.146Z,96.85
2022-12-18T01:35:41.493Z,96.77
2022-12-18T01:38:07.860Z,96.83
2022-12-18T01:40:34.218Z,96.68
2022-12-18T01:43:00.600Z,96.73
2022-12-18T01:45:26.969Z,96.86
2022-12-18T01:47:53.333Z,97.17
2022-12-18T01:50:19.931Z,97.10
2022-12-18T01:52:46.193Z,97.37
2022-12-18T01:55:12.507Z,97.33
2022-12-18T01:57:38.920Z,97.36
2022-12-18T02:00:05.227Z,97.16
2022-12-18T02:02:31.691Z,97.12
2022-12-18T02:04:57.956Z,97.03
2022-12-18T02:07:24.286Z,97.00
2022-12-18T02:09:50.617Z,97.00
2022-12-18T02:12:17.021Z,96.79
2022-12-18T02:14:43.414Z,96.51
2022-12-18T02:17:09.747Z,96.35
2022-12-18T02:19:36.171Z,96.30
2022-12-18T02:22:02.462Z,96.37
2022-12-18T02:24:28.779Z,96.17
2022-12-18T02:26:55.167Z,95.98
2022-12-18T02:29:21.460Z,96.19
2022-12-18T02:31:47.845Z,95.73
2022-12-18T02:34:14.233Z,96.16
2022-12-18T02:36:40.534Z,96.31
2022-12-18T02:39:06.887Z,96.31
2022-12-18T02:41:33.268Z,96.25
2022-12-18T02:43:59.622Z,96.29
2022-12-18T02:46:26.128Z,96.41
2022-12-18T02:48:52.413Z,96.47
2022-12-18T02:51:18.771Z,96.41
2022-12-18T02:53:45.091Z,96.64
2022-12-18T02:56:11.434Z,96.49
2022-12-18T02:58:37.795Z,96.89
2022-12-18T03:01:04.149Z,96.86
2022-12-18T03:03:30.537Z,96.84
2022-12-18T03:05:56.880Z,96.62
2022-12-18T03:08:23.306Z,96.86
2022-12-18T03:10:49.620Z,96.96
2022-12-18T03:13:15.975Z,97.12
2022-12-18T03:15:42.356Z,97.35
2022-12-18T03:18:08.709Z,97.07
2022-12-18T03:20:35.079Z,96.71
2022-12-18T03:23:01.438Z,96.76
2022-12-18T03:25:27.769Z,96.41
2022-12-18T03:27:54.149Z,96.16
2022-12-18T03:30:20.500Z,95.83
2022-12-18T03:32:46.854Z,95.17
2022-12-18T03:35:13.209Z,95.12
2022-12-18T03:37:39.528Z,95.25
2022-12-18T03:40:05.870Z,95.24
2022-12-18T03:42:32.264Z,94.61
2022-12-18T03:44:58.602Z,94.37
2022-12-18T03:47:24.985Z,94.16
2022-12-18T03:49:51.331Z,93.96
2022-12-18T03:52:17.710Z,93.63
2022-12-18T03:54:44.056Z,93.50
2022-12-18T03:57:10.464Z,93.16
2022-12-18T03:59:36.786Z,92.93
2022-12-18T04:02:03.281Z,92.81
2022-12-18T04:04:29.486Z,92.84
2022-12-18T04:06:55.879Z,92.70
2022-12-18T04:09:22.391Z,92.92
2022-12-18T04:11:48.779Z,92.99
2022-12-18T04:14:17.874Z,93.25
2022-12-18T04:16:41.463Z,93.11
2022-12-18T04:19:07.840Z,92.97
2022-12-18T04:21:34.196Z,92.83
2022-12-18T04:24:00.576Z,92.72
2022-12-18T04:26:26.931Z,92.89
2022-12-18T04:28:53.319Z,92.50
2022-12-18T04:31:19.690Z,92.40
2022-12-18T04:33:46.046Z,91.87
2022-12-18T04:36:12.440Z,91.67
2022-12-18T04:38:38.823Z,91.84
2022-12-18T04:41:05.173Z,91.44
2022-12-18T04:43:31.563Z,91.50
2022-12-18T04:45:57.944Z,91.08
2022-12-18T04:48:24.257Z,90.84
2022-12-18T04:50:50.577Z,91.05
2022-12-18T04:53:16.959Z,91.04
2022-12-18T04:55:43.272Z,90.78
2022-12-18T04:58:09.618Z,90.45
2022-12-18T05:00:35.967Z,90.22
2022-12-18T05:03:02.419Z,89.93
2022-12-18T05:05:28.727Z,89.60
2022-12-18T05:07:55.104Z,89.54
2022-12-18T05:10:21.490Z,89.51
2022-12-18T05:12:47.839Z,89.45
2022-12-18T05:15:14.197Z,89.74
2022-12-18T05:17:40.568Z,89.85
2022-12-18T05:20:06.930Z,89.84
2022-12-18T05:22:33.401Z,89.99
2022-12-18T05:24:59.711Z,89.67
2022-12-18T05:27:26.045Z,89.73
2022-12-18T05:29:52.375Z,89.66
2022-12-18T05:32:18.826Z,89.82
2022-12-18T05:34:45.122Z,89.98
2022-12-18T05:37:11.488Z,90.04
2022-12-18T05:39:37.867Z,89.74
2022-12-18T05:42:04.248Z,89.36
2022-12-18T05:44:30.567Z,89.16
2022-12-18T05:46:56.964Z,88.97
2022-12-18T05:49:23.235Z,88.89
2022-12-18T05:51:49.615Z,88.48
2022-12-18T05:54:15.972Z,88.05
2022-12-18T05:56:48.358Z,87.91
2022-12-18T05:59:08.702Z,87.89
2022-12-18T06:01:35.227Z,87.60
2022-12-18T06:04:01.568Z,87.60
2022-12-18T06:06:27.822Z,87.74
2022-12-18T06:08:54.213Z,87.80
2022-12-18T06:11:20.614Z,87.54
2022-12-18T06:13:46.966Z,87.74
2022-12-18T06:16:13.336Z,87.58
2022-12-18T06:18:39.676Z,87.33
2022-12-18T06:21:06.087Z,87.36
2022-12-18T06:23:32.402Z,87.24
2022-12-18T06:25:58.789Z,87.27
2022-12-18T06:28:25.140Z,86.82
2022-12-18T06:30:51.530Z,87.10
2022-12-18T06:33:17.882Z,86.93
2022-12-18T06:35:44.255Z,87.02
2022-12-18T06:38:10.567Z,86.54
2022-12-18T06:40:36.945Z,86.43
2022-12-18T06:43:03.337Z,86.08
2022-12-18T06:45:29.821Z,86.14
2022-12-18T06:47:56.116Z,85.96
2022-12-18T06:50:22.531Z,86.17
2022-12-18T06:52:48.911Z,85.97
2022-12-18T06:55:15.902Z,86.02
2022-12-18T06:57:42.255Z,85.21
2022-12-18T07:00:08.591Z,84.96
2022-12-18T07:02:35.031Z,84.82
2022-12-18T07:05:04.723Z,84.12
2022-12-18T07:07:27.655Z,83.70
2022-12-18T07:09:54.144Z,83.69
2022-12-18T07:12:20.423Z,83.18
2022-12-18T07:14:46.998Z,83.40
2022-12-18T07:17:13.388Z,83.16
